sensor_id;sensor_type;location;lat;lon;timestamp;temperature;humidity
2409;DHT22;8463;48.094;7.970;2023-04-25T00:00:18;10.60;3.40
2409;DHT22;8463;48.094;7.970;2023-04-25T00:02:47;10.50;3.80
2409;DHT22;8463;48.094;7.970;2023-04-25T00:05:12;10.50;4.80
2409;DHT22;8463;48.094;7.970;2023-04-25T00:07:40;10.40;5.10
2409;DHT22;8463;48.094;7.970;2023-04-25T00:10:08;10.40;6.70
2409;DHT22;8463;48.094;7.970;2023-04-25T00:12:34;10.30;6.70
2409;DHT22;8463;48.094;7.970;2023-04-25T00:15:04;10.20;8.20
2409;DHT22;8463;48.094;7.970;2023-04-25T00:17:30;10.20;9.20
2409;DHT22;8463;48.094;7.970;2023-04-25T00:20:01;10.10;10.50
2409;DHT22;8463;48.094;7.970;2023-04-25T00:22:30;10.10;12.50
2409;DHT22;8463;48.094;7.970;2023-04-25T00:24:56;10.10;14.00
2409;DHT22;8463;48.094;7.970;2023-04-25T00:27:25;10.00;15.40
2409;DHT22;8463;48.094;7.970;2023-04-25T00:29:51;10.00;17.20
2409;DHT22;8463;48.094;7.970;2023-04-25T00:32:16;10.00;18.20
2409;DHT22;8463;48.094;7.970;2023-04-25T00:34:44;10.00;18.10
2409;DHT22;8463;48.094;7.970;2023-04-25T00:37:10;10.00;18.10
2409;DHT22;8463;48.094;7.970;2023-04-25T00:39:39;10.00;18.90
2409;DHT22;8463;48.094;7.970;2023-04-25T00:42:08;9.90;18.90
2409;DHT22;8463;48.094;7.970;2023-04-25T00:44:34;9.90;18.10
2409;DHT22;8463;48.094;7.970;2023-04-25T00:47:02;9.80;18.70
2409;DHT22;8463;48.094;7.970;2023-04-25T00:49:28;9.80;18.80
2409;DHT22;8463;48.094;7.970;2023-04-25T00:51:54;9.80;17.80
2409;DHT22;8463;48.094;7.970;2023-04-25T00:54:20;9.80;18.10
2409;DHT22;8463;48.094;7.970;2023-04-25T00:56:46;9.80;17.50
2409;DHT22;8463;48.094;7.970;2023-04-25T00:59:12;9.70;17.10
2409;DHT22;8463;48.094;7.970;2023-04-25T01:01:39;9.70;18.10
2409;DHT22;8463;48.094;7.970;2023-04-25T01:04:05;9.70;17.60
2409;DHT22;8463;48.094;7.970;2023-04-25T01:06:31;9.80;15.90
2409;DHT22;8463;48.094;7.970;2023-04-25T01:09:02;9.80;16.80
2409;DHT22;8463;48.094;7.970;2023-04-25T01:11:30;9.80;16.10
2409;DHT22;8463;48.094;7.970;2023-04-25T01:13:55;9.80;16.90
2409;DHT22;8463;48.094;7.970;2023-04-25T01:16:22;9.80;16.00
2409;DHT22;8463;48.094;7.970;2023-04-25T01:18:49;9.80;15.40
2409;DHT22;8463;48.094;7.970;2023-04-25T01:21:16;9.70;15.00
2409;DHT22;8463;48.094;7.970;2023-04-25T01:23:42;9.70;15.50
2409;DHT22;8463;48.094;7.970;2023-04-25T01:26:10;9.80;16.80
2409;DHT22;8463;48.094;7.970;2023-04-25T01:28:36;9.60;16.00
2409;DHT22;8463;48.094;7.970;2023-04-25T01:31:03;9.60;16.60
2409;DHT22;8463;48.094;7.970;2023-04-25T01:33:29;9.60;16.50
2409;DHT22;8463;48.094;7.970;2023-04-25T01:35:55;9.70;16.20
2409;DHT22;8463;48.094;7.970;2023-04-25T01:38:23;9.70;16.30
2409;DHT22;8463;48.094;7.970;2023-04-25T01:40:50;9.60;16.70
2409;DHT22;8463;48.094;7.970;2023-04-25T01:43:16;9.50;17.10
2409;DHT22;8463;48.094;7.970;2023-04-25T01:45:42;9.60;18.10
2409;DHT22;8463;48.094;7.970;2023-04-25T01:48:13;9.60;17.60
2409;DHT22;8463;48.094;7.970;2023-04-25T01:50:40;9.60;18.60
2409;DHT22;8463;48.094;7.970;2023-04-25T01:53:06;9.60;18.60
2409;DHT22;8463;48.094;7.970;2023-04-25T01:55:31;9.70;18.60
2409;DHT22;8463;48.094;7.970;2023-04-25T01:57:57;9.70;18.20
2409;DHT22;8463;48.094;7.970;2023-04-25T02:00:24;9.70;17.40
2409;DHT22;8463;48.094;7.970;2023-04-25T02:02:50;9.50;19.00
2409;DHT22;8463;48.094;7.970;2023-04-25T02:05:16;9.40;20.40
2409;DHT22;8463;48.094;7.970;2023-04-25T02:07:42;9.30;21.70
2409;DHT22;8463;48.094;7.970;2023-04-25T02:10:14;9.30;22.90
2409;DHT22;8463;48.094;7.970;2023-04-25T02:12:40;9.30;22.70
2409;DHT22;8463;48.094;7.970;2023-04-25T02:15:06;9.30;23.40
2409;DHT22;8463;48.094;7.970;2023-04-25T02:17:32;9.30;23.50
2409;DHT22;8463;48.094;7.970;2023-04-25T02:19:57;9.30;24.00
2409;DHT22;8463;48.094;7.970;2023-04-25T02:22:23;9.30;24.40
2409;DHT22;8463;48.094;7.970;2023-04-25T02:24:49;9.40;25.00
2409;DHT22;8463;48.094;7.970;2023-04-25T02:27:14;9.40;25.40
2409;DHT22;8463;48.094;7.970;2023-04-25T02:29:40;9.50;26.00
2409;DHT22;8463;48.094;7.970;2023-04-25T02:32:06;9.50;26.10
2409;DHT22;8463;48.094;7.970;2023-04-25T02:34:31;9.50;26.10
2409;DHT22;8463;48.094;7.970;2023-04-25T02:36:57;9.50;26.90
2409;DHT22;8463;48.094;7.970;2023-04-25T02:39:26;9.50;27.50
2409;DHT22;8463;48.094;7.970;2023-04-25T02:41:52;9.50;27.90
2409;DHT22;8463;48.094;7.970;2023-04-25T02:44:18;9.30;28.20
2409;DHT22;8463;48.094;7.970;2023-04-25T02:46:47;9.30;29.20
2409;DHT22;8463;48.094;7.970;2023-04-25T02:49:13;9.30;29.10
2409;DHT22;8463;48.094;7.970;2023-04-25T02:51:38;9.30;29.20
2409;DHT22;8463;48.094;7.970;2023-04-25T02:54:04;9.30;29.60
2409;DHT22;8463;48.094;7.970;2023-04-25T02:56:31;9.30;29.60
2409;DHT22;8463;48.094;7.970;2023-04-25T02:59:03;9.30;29.60
2409;DHT22;8463;48.094;7.970;2023-04-25T03:01:29;9.30;29.70
2409;DHT22;8463;48.094;7.970;2023-04-25T03:03:56;9.30;29.90
2409;DHT22;8463;48.094;7.970;2023-04-25T03:06:22;9.30;29.60
2409;DHT22;8463;48.094;7.970;2023-04-25T03:08:48;9.20;29.80
2409;DHT22;8463;48.094;7.970;2023-04-25T03:11:16;9.20;30.00
2409;DHT22;8463;48.094;7.970;2023-04-25T03:13:41;9.30;30.50
2409;DHT22;8463;48.094;7.970;2023-04-25T03:16:07;9.10;30.20
2409;DHT22;8463;48.094;7.970;2023-04-25T03:18:39;9.10;30.60
2409;DHT22;8463;48.094;7.970;2023-04-25T03:21:04;9.10;31.00
2409;DHT22;8463;48.094;7.970;2023-04-25T03:23:30;9.10;30.40
2409;DHT22;8463;48.094;7.970;2023-04-25T03:25:56;9.10;30.80
2409;DHT22;8463;48.094;7.970;2023-04-25T03:28:22;9.10;31.00
2409;DHT22;8463;48.094;7.970;2023-04-25T03:30:47;9.10;31.00
2409;DHT22;8463;48.094;7.970;2023-04-25T03:33:13;9.10;31.60
2409;DHT22;8463;48.094;7.970;2023-04-25T03:35:38;9.10;31.80
2409;DHT22;8463;48.094;7.970;2023-04-25T03:38:08;9.10;31.70
2409;DHT22;8463;48.094;7.970;2023-04-25T03:40:34;9.10;31.10
2409;DHT22;8463;48.094;7.970;2023-04-25T03:42:59;9.10;31.20
2409;DHT22;8463;48.094;7.970;2023-04-25T03:45:25;9.10;31.00
2409;DHT22;8463;48.094;7.970;2023-04-25T03:47:51;9.10;31.10
2409;DHT22;8463;48.094;7.970;2023-04-25T03:50:16;9.10;31.20
2409;DHT22;8463;48.094;7.970;2023-04-25T03:52:44;9.20;31.70
2409;DHT22;8463;48.094;7.970;2023-04-25T03:55:10;9.20;31.90
2409;DHT22;8463;48.094;7.970;2023-04-25T03:57:36;8.90;32.50
2409;DHT22;8463;48.094;7.970;2023-04-25T04:00:01;8.90;32.90
2409;DHT22;8463;48.094;7.970;2023-04-25T04:02:31;8.90;33.20
2409;DHT22;8463;48.094;7.970;2023-04-25T04:04:58;8.80;32.80
2409;DHT22;8463;48.094;7.970;2023-04-25T04:07:24;8.70;33.20
2409;DHT22;8463;48.094;7.970;2023-04-25T04:09:49;8.80;33.60
2409;DHT22;8463;48.094;7.970;2023-04-25T04:12:15;8.70;33.50
2409;DHT22;8463;48.094;7.970;2023-04-25T04:14:40;8.70;33.50
2409;DHT22;8463;48.094;7.970;2023-04-25T04:17:08;8.70;33.50
2409;DHT22;8463;48.094;7.970;2023-04-25T04:19:33;8.80;33.60
2409;DHT22;8463;48.094;7.970;2023-04-25T04:21:59;8.70;33.50
2409;DHT22;8463;48.094;7.970;2023-04-25T04:24:25;8.70;34.30
2409;DHT22;8463;48.094;7.970;2023-04-25T04:26:50;8.60;33.40
2409;DHT22;8463;48.094;7.970;2023-04-25T04:29:17;8.60;33.40
2409;DHT22;8463;48.094;7.970;2023-04-25T04:31:55;8.50;33.30
2409;DHT22;8463;48.094;7.970;2023-04-25T04:34:26;8.40;34.60
2409;DHT22;8463;48.094;7.970;2023-04-25T04:36:52;8.40;35.40
2409;DHT22;8463;48.094;7.970;2023-04-25T04:39:18;8.40;34.70
2409;DHT22;8463;48.094;7.970;2023-04-25T04:41:43;8.10;37.10
2409;DHT22;8463;48.094;7.970;2023-04-25T04:44:09;8.10;38.50
2409;DHT22;8463;48.094;7.970;2023-04-25T04:46:36;8.00;39.40
2409;DHT22;8463;48.094;7.970;2023-04-25T04:49:10;8.00;41.50
2409;DHT22;8463;48.094;7.970;2023-04-25T04:51:36;8.10;41.40
2409;DHT22;8463;48.094;7.970;2023-04-25T04:54:03;8.20;40.60
2409;DHT22;8463;48.094;7.970;2023-04-25T04:56:32;8.30;39.80
2409;DHT22;8463;48.094;7.970;2023-04-25T04:58:58;8.30;38.60
2409;DHT22;8463;48.094;7.970;2023-04-25T05:01:24;8.30;38.50
2409;DHT22;8463;48.094;7.970;2023-04-25T05:03:52;8.30;38.40
2409;DHT22;8463;48.094;7.970;2023-04-25T05:06:21;8.40;38.70
2409;DHT22;8463;48.094;7.970;2023-04-25T05:08:46;8.30;39.20
2409;DHT22;8463;48.094;7.970;2023-04-25T05:11:12;8.30;40.10
2409;DHT22;8463;48.094;7.970;2023-04-25T05:13:39;8.40;39.60
2409;DHT22;8463;48.094;7.970;2023-04-25T05:16:05;8.40;39.40
2409;DHT22;8463;48.094;7.970;2023-04-25T05:18:31;8.40;39.50
2409;DHT22;8463;48.094;7.970;2023-04-25T05:20:59;8.50;39.20
2409;DHT22;8463;48.094;7.970;2023-04-25T05:23:25;8.70;38.60
2409;DHT22;8463;48.094;7.970;2023-04-25T05:25:53;8.60;38.20
2409;DHT22;8463;48.094;7.970;2023-04-25T05:28:21;8.60;37.80
2409;DHT22;8463;48.094;7.970;2023-04-25T05:30:46;8.60;37.80
2409;DHT22;8463;48.094;7.970;2023-04-25T05:33:12;8.90;37.50
2409;DHT22;8463;48.094;7.970;2023-04-25T05:35:38;8.70;37.50
2409;DHT22;8463;48.094;7.970;2023-04-25T05:38:04;8.70;36.50
2409;DHT22;8463;48.094;7.970;2023-04-25T05:40:32;8.70;37.40
2409;DHT22;8463;48.094;7.970;2023-04-25T05:42:58;9.40;70.90
2409;DHT22;8463;48.094;7.970;2023-04-25T05:45:23;9.70;50.20
2409;DHT22;8463;48.094;7.970;2023-04-25T05:47:49;9.60;46.70
2409;DHT22;8463;48.094;7.970;2023-04-25T05:50:15;8.90;47.70
2409;DHT22;8463;48.094;7.970;2023-04-25T05:52:40;8.70;48.90
2409;DHT22;8463;48.094;7.970;2023-04-25T05:55:06;8.60;50.90
2409;DHT22;8463;48.094;7.970;2023-04-25T05:57:32;8.30;52.90
2409;DHT22;8463;48.094;7.970;2023-04-25T05:59:58;8.10;56.20
2409;DHT22;8463;48.094;7.970;2023-04-25T06:02:23;8.20;58.40
2409;DHT22;8463;48.094;7.970;2023-04-25T06:04:50;8.40;60.60
2409;DHT22;8463;48.094;7.970;2023-04-25T06:07:17;8.10;62.90
2409;DHT22;8463;48.094;7.970;2023-04-25T06:09:46;8.20;61.90
2409;DHT22;8463;48.094;7.970;2023-04-25T06:12:11;7.90;64.20
2409;DHT22;8463;48.094;7.970;2023-04-25T06:14:37;7.90;66.30
2409;DHT22;8463;48.094;7.970;2023-04-25T06:17:03;7.90;66.50
2409;DHT22;8463;48.094;7.970;2023-04-25T06:19:34;7.80;65.80
2409;DHT22;8463;48.094;7.970;2023-04-25T06:21:59;7.60;66.90
2409;DHT22;8463;48.094;7.970;2023-04-25T06:24:27;7.50;63.00
2409;DHT22;8463;48.094;7.970;2023-04-25T06:26:53;7.50;66.40
2409;DHT22;8463;48.094;7.970;2023-04-25T06:29:19;7.40;66.70
2409;DHT22;8463;48.094;7.970;2023-04-25T06:31:45;7.40;66.70
2409;DHT22;8463;48.094;7.970;2023-04-25T06:34:11;7.30;64.50
2409;DHT22;8463;48.094;7.970;2023-04-25T06:36:37;7.30;64.70
2409;DHT22;8463;48.094;7.970;2023-04-25T06:39:02;7.20;64.20
2409;DHT22;8463;48.094;7.970;2023-04-25T06:41:31;7.10;60.70
2409;DHT22;8463;48.094;7.970;2023-04-25T06:43:59;7.00;63.90
2409;DHT22;8463;48.094;7.970;2023-04-25T06:46:25;7.00;61.20
2409;DHT22;8463;48.094;7.970;2023-04-25T06:48:50;6.90;64.00
2409;DHT22;8463;48.094;7.970;2023-04-25T06:51:16;6.90;65.90
2409;DHT22;8463;48.094;7.970;2023-04-25T06:53:47;6.90;63.20
2409;DHT22;8463;48.094;7.970;2023-04-25T06:56:13;6.80;62.90
2409;DHT22;8463;48.094;7.970;2023-04-25T06:58:38;6.70;62.40
2409;DHT22;8463;48.094;7.970;2023-04-25T07:01:04;6.80;64.30
2409;DHT22;8463;48.094;7.970;2023-04-25T07:03:30;6.80;61.80
2409;DHT22;8463;48.094;7.970;2023-04-25T07:06:01;6.70;63.80
2409;DHT22;8463;48.094;7.970;2023-04-25T07:08:28;6.70;64.90
2409;DHT22;8463;48.094;7.970;2023-04-25T07:10:54;6.60;62.60
2409;DHT22;8463;48.094;7.970;2023-04-25T07:13:26;6.60;62.50
2409;DHT22;8463;48.094;7.970;2023-04-25T07:15:52;6.60;62.60
2409;DHT22;8463;48.094;7.970;2023-04-25T07:18:17;6.90;63.00
2409;DHT22;8463;48.094;7.970;2023-04-25T07:20:43;6.70;62.40
2409;DHT22;8463;48.094;7.970;2023-04-25T07:23:12;6.70;64.10
2409;DHT22;8463;48.094;7.970;2023-04-25T07:25:37;6.80;64.80
2409;DHT22;8463;48.094;7.970;2023-04-25T07:28:03;6.80;64.40
2409;DHT22;8463;48.094;7.970;2023-04-25T07:30:28;7.00;67.40
2409;DHT22;8463;48.094;7.970;2023-04-25T07:32:54;6.90;68.10
2409;DHT22;8463;48.094;7.970;2023-04-25T07:35:28;6.90;68.20
2409;DHT22;8463;48.094;7.970;2023-04-25T07:37:54;7.20;68.90
2409;DHT22;8463;48.094;7.970;2023-04-25T07:40:26;7.30;69.60
2409;DHT22;8463;48.094;7.970;2023-04-25T07:42:52;7.50;69.80
2409;DHT22;8463;48.094;7.970;2023-04-25T07:45:17;7.60;69.10
2409;DHT22;8463;48.094;7.970;2023-04-25T07:47:43;7.40;68.50
2409;DHT22;8463;48.094;7.970;2023-04-25T07:50:15;7.30;71.10
2409;DHT22;8463;48.094;7.970;2023-04-25T07:52:40;7.30;70.80
2409;DHT22;8463;48.094;7.970;2023-04-25T07:55:06;7.10;71.40
2409;DHT22;8463;48.094;7.970;2023-04-25T07:57:32;7.00;72.90
2409;DHT22;8463;48.094;7.970;2023-04-25T08:00:01;7.00;72.90
2409;DHT22;8463;48.094;7.970;2023-04-25T08:02:26;7.00;72.40
2409;DHT22;8463;48.094;7.970;2023-04-25T08:04:53;7.10;73.10
2409;DHT22;8463;48.094;7.970;2023-04-25T08:07:19;7.70;70.30
2409;DHT22;8463;48.094;7.970;2023-04-25T08:09:54;7.20;71.00
2409;DHT22;8463;48.094;7.970;2023-04-25T08:12:20;7.10;70.40
2409;DHT22;8463;48.094;7.970;2023-04-25T08:14:45;7.00;69.00
2409;DHT22;8463;48.094;7.970;2023-04-25T08:17:12;7.00;69.20
2409;DHT22;8463;48.094;7.970;2023-04-25T08:19:38;7.00;68.60
2409;DHT22;8463;48.094;7.970;2023-04-25T08:22:04;7.10;70.00
2409;DHT22;8463;48.094;7.970;2023-04-25T08:24:33;7.10;70.40
2409;DHT22;8463;48.094;7.970;2023-04-25T08:26:59;7.00;71.00
2409;DHT22;8463;48.094;7.970;2023-04-25T08:29:24;7.00;71.00
2409;DHT22;8463;48.094;7.970;2023-04-25T08:31:56;7.00;71.10
2409;DHT22;8463;48.094;7.970;2023-04-25T08:34:22;7.00;70.70
2409;DHT22;8463;48.094;7.970;2023-04-25T08:36:47;7.10;71.40
2409;DHT22;8463;48.094;7.970;2023-04-25T08:39:13;7.40;71.10
2409;DHT22;8463;48.094;7.970;2023-04-25T08:41:41;7.00;71.40
2409;DHT22;8463;48.094;7.970;2023-04-25T08:44:10;7.00;70.30
2409;DHT22;8463;48.094;7.970;2023-04-25T08:46:39;7.10;70.60
2409;DHT22;8463;48.094;7.970;2023-04-25T08:49:07;7.20;71.40
2409;DHT22;8463;48.094;7.970;2023-04-25T08:51:47;7.30;69.60
2409;DHT22;8463;48.094;7.970;2023-04-25T08:54:14;7.20;70.30
2409;DHT22;8463;48.094;7.970;2023-04-25T08:56:49;7.20;70.00
2409;DHT22;8463;48.094;7.970;2023-04-25T08:59:15;7.20;69.40
2409;DHT22;8463;48.094;7.970;2023-04-25T09:01:40;7.30;70.60
2409;DHT22;8463;48.094;7.970;2023-04-25T09:04:06;7.60;71.10
2409;DHT22;8463;48.094;7.970;2023-04-25T09:06:32;7.50;69.50
2409;DHT22;8463;48.094;7.970;2023-04-25T09:09:07;7.50;69.50
2409;DHT22;8463;48.094;7.970;2023-04-25T09:11:33;7.60;70.10
2409;DHT22;8463;48.094;7.970;2023-04-25T09:14:39;7.60;70.60
2409;DHT22;8463;48.094;7.970;2023-04-25T09:17:05;7.80;69.30
2409;DHT22;8463;48.094;7.970;2023-04-25T09:19:40;7.70;64.20
2409;DHT22;8463;48.094;7.970;2023-04-25T09:22:06;7.80;67.10
2409;DHT22;8463;48.094;7.970;2023-04-25T09:24:39;8.10;67.40
2409;DHT22;8463;48.094;7.970;2023-04-25T09:27:08;8.20;65.00
2409;DHT22;8463;48.094;7.970;2023-04-25T09:29:37;8.20;61.20
2409;DHT22;8463;48.094;7.970;2023-04-25T09:32:20;8.30;63.40
2409;DHT22;8463;48.094;7.970;2023-04-25T09:34:50;8.30;64.50
2409;DHT22;8463;48.094;7.970;2023-04-25T09:39:53;8.10;63.40
2409;DHT22;8463;48.094;7.970;2023-04-25T09:42:22;8.00;62.90
2409;DHT22;8463;48.094;7.970;2023-04-25T09:44:54;8.10;63.30
2409;DHT22;8463;48.094;7.970;2023-04-25T09:47:23;8.20;63.60
2409;DHT22;8463;48.094;7.970;2023-04-25T09:49:51;8.20;62.70
2409;DHT22;8463;48.094;7.970;2023-04-25T09:52:19;8.20;64.00
2409;DHT22;8463;48.094;7.970;2023-04-25T09:54:49;8.20;62.80
2409;DHT22;8463;48.094;7.970;2023-04-25T09:57:22;8.20;64.40
2409;DHT22;8463;48.094;7.970;2023-04-25T09:59:51;8.10;64.80
2409;DHT22;8463;48.094;7.970;2023-04-25T10:02:22;8.00;64.90
2409;DHT22;8463;48.094;7.970;2023-04-25T10:04:51;8.00;67.20
2409;DHT22;8463;48.094;7.970;2023-04-25T10:07:25;7.90;66.40
2409;DHT22;8463;48.094;7.970;2023-04-25T10:09:58;7.90;66.20
2409;DHT22;8463;48.094;7.970;2023-04-25T10:12:28;7.90;67.80
2409;DHT22;8463;48.094;7.970;2023-04-25T10:14:54;8.00;67.40
2409;DHT22;8463;48.094;7.970;2023-04-25T10:17:22;8.00;65.90
2409;DHT22;8463;48.094;7.970;2023-04-25T10:19:49;7.90;67.10
2409;DHT22;8463;48.094;7.970;2023-04-25T10:22:18;8.10;67.30
2409;DHT22;8463;48.094;7.970;2023-04-25T10:24:46;8.00;63.70
2409;DHT22;8463;48.094;7.970;2023-04-25T10:27:13;8.00;65.20
2409;DHT22;8463;48.094;7.970;2023-04-25T10:29:39;8.20;66.10
2409;DHT22;8463;48.094;7.970;2023-04-25T10:32:08;8.40;66.30
2409;DHT22;8463;48.094;7.970;2023-04-25T10:34:45;8.50;63.90
2409;DHT22;8463;48.094;7.970;2023-04-25T10:37:13;8.60;61.40
2409;DHT22;8463;48.094;7.970;2023-04-25T10:39:40;8.90;62.40
2409;DHT22;8463;48.094;7.970;2023-04-25T10:42:09;9.00;61.80
2409;DHT22;8463;48.094;7.970;2023-04-25T10:44:37;9.10;59.40
2409;DHT22;8463;48.094;7.970;2023-04-25T10:47:03;9.10;51.90
2409;DHT22;8463;48.094;7.970;2023-04-25T10:49:41;9.10;59.30
2409;DHT22;8463;48.094;7.970;2023-04-25T10:55:04;9.50;56.70
2409;DHT22;8463;48.094;7.970;2023-04-25T10:57:46;9.90;55.60
2409;DHT22;8463;48.094;7.970;2023-04-25T11:00:20;9.90;51.30
2409;DHT22;8463;48.094;7.970;2023-04-25T11:02:52;10.00;53.40
2409;DHT22;8463;48.094;7.970;2023-04-25T11:05:37;9.90;48.20
2409;DHT22;8463;48.094;7.970;2023-04-25T11:08:11;10.00;44.50
2409;DHT22;8463;48.094;7.970;2023-04-25T11:10:40;10.20;48.40
2409;DHT22;8463;48.094;7.970;2023-04-25T11:13:05;10.30;44.80
2409;DHT22;8463;48.094;7.970;2023-04-25T11:15:39;10.40;45.60
2409;DHT22;8463;48.094;7.970;2023-04-25T11:18:05;10.70;52.50
2409;DHT22;8463;48.094;7.970;2023-04-25T11:20:34;10.70;44.30
2409;DHT22;8463;48.094;7.970;2023-04-25T11:22:59;10.90;43.00
2409;DHT22;8463;48.094;7.970;2023-04-25T11:25:25;10.80;45.50
2409;DHT22;8463;48.094;7.970;2023-04-25T11:27:56;11.00;40.70
2409;DHT22;8463;48.094;7.970;2023-04-25T11:30:23;11.10;39.80
2409;DHT22;8463;48.094;7.970;2023-04-25T11:32:49;11.30;40.90
2409;DHT22;8463;48.094;7.970;2023-04-25T11:35:16;11.30;41.10
2409;DHT22;8463;48.094;7.970;2023-04-25T11:37:43;11.70;42.50
2409;DHT22;8463;48.094;7.970;2023-04-25T11:40:10;12.10;37.90
2409;DHT22;8463;48.094;7.970;2023-04-25T11:42:43;12.20;33.30
2409;DHT22;8463;48.094;7.970;2023-04-25T11:45:09;12.20;33.60
2409;DHT22;8463;48.094;7.970;2023-04-25T11:47:38;12.30;34.80
2409;DHT22;8463;48.094;7.970;2023-04-25T11:50:06;12.00;32.10
2409;DHT22;8463;48.094;7.970;2023-04-25T11:52:52;12.10;38.20
2409;DHT22;8463;48.094;7.970;2023-04-25T11:55:21;12.20;30.50
2409;DHT22;8463;48.094;7.970;2023-04-25T11:57:50;12.20;27.30
2409;DHT22;8463;48.094;7.970;2023-04-25T12:00:18;11.90;21.30
2409;DHT22;8463;48.094;7.970;2023-04-25T12:02:53;11.80;21.30
2409;DHT22;8463;48.094;7.970;2023-04-25T12:05:30;11.90;27.00
2409;DHT22;8463;48.094;7.970;2023-04-25T12:08:15;11.90;27.90
2409;DHT22;8463;48.094;7.970;2023-04-25T12:10:45;12.00;27.80
2409;DHT22;8463;48.094;7.970;2023-04-25T12:13:24;11.60;25.50
2409;DHT22;8463;48.094;7.970;2023-04-25T12:15:50;11.10;29.10
2409;DHT22;8463;48.094;7.970;2023-04-25T12:18:28;11.00;29.00
2409;DHT22;8463;48.094;7.970;2023-04-25T12:20:54;11.00;30.00
2409;DHT22;8463;48.094;7.970;2023-04-25T12:23:30;11.00;31.20
2409;DHT22;8463;48.094;7.970;2023-04-25T12:25:56;11.00;33.00
2409;DHT22;8463;48.094;7.970;2023-04-25T12:28:32;10.90;39.50
2409;DHT22;8463;48.094;7.970;2023-04-25T12:33:33;10.40;36.70
2409;DHT22;8463;48.094;7.970;2023-04-25T12:36:00;10.30;43.10
2409;DHT22;8463;48.094;7.970;2023-04-25T12:38:31;10.40;46.50
2409;DHT22;8463;48.094;7.970;2023-04-25T12:40:57;10.60;39.50
2409;DHT22;8463;48.094;7.970;2023-04-25T12:43:29;10.70;36.50
2409;DHT22;8463;48.094;7.970;2023-04-25T12:45:56;10.70;35.10
2409;DHT22;8463;48.094;7.970;2023-04-25T12:48:22;11.00;40.00
2409;DHT22;8463;48.094;7.970;2023-04-25T12:51:02;11.30;44.10
2409;DHT22;8463;48.094;7.970;2023-04-25T12:53:31;11.70;45.30
2409;DHT22;8463;48.094;7.970;2023-04-25T12:55:56;12.10;46.20
2409;DHT22;8463;48.094;7.970;2023-04-25T12:58:22;12.20;41.30
2409;DHT22;8463;48.094;7.970;2023-04-25T13:00:57;11.70;29.00
2409;DHT22;8463;48.094;7.970;2023-04-25T13:03:22;11.30;30.50
2409;DHT22;8463;48.094;7.970;2023-04-25T13:05:48;10.80;30.00
2409;DHT22;8463;48.094;7.970;2023-04-25T13:08:19;10.50;29.90
2409;DHT22;8463;48.094;7.970;2023-04-25T13:10:45;10.50;33.00
2409;DHT22;8463;48.094;7.970;2023-04-25T13:13:10;10.50;32.90
2409;DHT22;8463;48.094;7.970;2023-04-25T13:15:36;10.50;32.60
2409;DHT22;8463;48.094;7.970;2023-04-25T13:18:03;10.30;33.50
2409;DHT22;8463;48.094;7.970;2023-04-25T13:20:29;10.10;35.30
2409;DHT22;8463;48.094;7.970;2023-04-25T13:22:55;10.00;37.50
2409;DHT22;8463;48.094;7.970;2023-04-25T13:25:24;10.00;39.70
2409;DHT22;8463;48.094;7.970;2023-04-25T13:27:50;9.90;38.10
2409;DHT22;8463;48.094;7.970;2023-04-25T13:30:24;9.70;41.80
2409;DHT22;8463;48.094;7.970;2023-04-25T13:32:50;9.70;43.60
2409;DHT22;8463;48.094;7.970;2023-04-25T13:35:16;9.70;43.60
2409;DHT22;8463;48.094;7.970;2023-04-25T13:37:42;9.60;43.50
2409;DHT22;8463;48.094;7.970;2023-04-25T13:40:09;9.60;47.60
2409;DHT22;8463;48.094;7.970;2023-04-25T13:42:37;9.50;51.90
2409;DHT22;8463;48.094;7.970;2023-04-25T13:45:06;9.70;51.70
2409;DHT22;8463;48.094;7.970;2023-04-25T13:47:31;9.90;51.40
2409;DHT22;8463;48.094;7.970;2023-04-25T13:49:57;10.00;45.80
2409;DHT22;8463;48.094;7.970;2023-04-25T13:52:23;10.10;46.80
2409;DHT22;8463;48.094;7.970;2023-04-25T13:54:51;10.20;42.00
2409;DHT22;8463;48.094;7.970;2023-04-25T13:57:19;10.60;43.40
2409;DHT22;8463;48.094;7.970;2023-04-25T13:59:45;11.00;43.20
2409;DHT22;8463;48.094;7.970;2023-04-25T14:02:12;11.20;32.20
2409;DHT22;8463;48.094;7.970;2023-04-25T14:04:37;11.30;30.00
2409;DHT22;8463;48.094;7.970;2023-04-25T14:07:14;11.70;40.00
2409;DHT22;8463;48.094;7.970;2023-04-25T14:09:43;12.30;37.00
2409;DHT22;8463;48.094;7.970;2023-04-25T14:12:11;12.50;27.50
2409;DHT22;8463;48.094;7.970;2023-04-25T14:14:39;12.40;28.20
2409;DHT22;8463;48.094;7.970;2023-04-25T14:17:05;12.20;24.30
2409;DHT22;8463;48.094;7.970;2023-04-25T14:19:31;12.10;26.30
2409;DHT22;8463;48.094;7.970;2023-04-25T14:21:57;12.20;27.70
2409;DHT22;8463;48.094;7.970;2023-04-25T14:24:23;12.30;28.00
2409;DHT22;8463;48.094;7.970;2023-04-25T14:26:51;12.30;30.40
2409;DHT22;8463;48.094;7.970;2023-04-25T14:29:17;12.30;31.20
2409;DHT22;8463;48.094;7.970;2023-04-25T14:31:42;12.20;30.70
2409;DHT22;8463;48.094;7.970;2023-04-25T14:34:08;12.10;29.90
2409;DHT22;8463;48.094;7.970;2023-04-25T14:36:35;12.00;30.90
2409;DHT22;8463;48.094;7.970;2023-04-25T14:39:01;12.30;34.10
2409;DHT22;8463;48.094;7.970;2023-04-25T14:41:27;12.30;31.00
2409;DHT22;8463;48.094;7.970;2023-04-25T14:43:53;12.30;27.90
2409;DHT22;8463;48.094;7.970;2023-04-25T14:46:19;12.10;27.20
2409;DHT22;8463;48.094;7.970;2023-04-25T14:48:48;12.20;28.70
2409;DHT22;8463;48.094;7.970;2023-04-25T14:51:14;12.20;28.40
2409;DHT22;8463;48.094;7.970;2023-04-25T14:53:41;12.00;28.10
2409;DHT22;8463;48.094;7.970;2023-04-25T14:56:06;11.70;28.60
2409;DHT22;8463;48.094;7.970;2023-04-25T14:58:33;11.60;29.00
2409;DHT22;8463;48.094;7.970;2023-04-25T15:00:59;11.30;30.50
2409;DHT22;8463;48.094;7.970;2023-04-25T15:03:25;11.30;32.30
2409;DHT22;8463;48.094;7.970;2023-04-25T15:05:51;11.20;32.10
2409;DHT22;8463;48.094;7.970;2023-04-25T15:08:17;11.10;32.90
2409;DHT22;8463;48.094;7.970;2023-04-25T15:10:43;11.30;34.90
2409;DHT22;8463;48.094;7.970;2023-04-25T15:13:10;11.10;36.40
2409;DHT22;8463;48.094;7.970;2023-04-25T15:15:36;11.00;37.30
2409;DHT22;8463;48.094;7.970;2023-04-25T15:18:02;11.00;37.10
2409;DHT22;8463;48.094;7.970;2023-04-25T15:20:28;10.90;38.10
2409;DHT22;8463;48.094;7.970;2023-04-25T15:22:54;10.90;38.90
2409;DHT22;8463;48.094;7.970;2023-04-25T15:25:20;10.90;39.10
2409;DHT22;8463;48.094;7.970;2023-04-25T15:27:48;10.90;39.10
2409;DHT22;8463;48.094;7.970;2023-04-25T15:30:15;10.90;36.20
2409;DHT22;8463;48.094;7.970;2023-04-25T15:32:45;10.80;35.90
2409;DHT22;8463;48.094;7.970;2023-04-25T15:35:13;10.80;36.60
2409;DHT22;8463;48.094;7.970;2023-04-25T15:37:40;10.50;34.90
2409;DHT22;8463;48.094;7.970;2023-04-25T15:40:07;10.70;37.60
2409;DHT22;8463;48.094;7.970;2023-04-25T15:42:45;10.80;38.50
2409;DHT22;8463;48.094;7.970;2023-04-25T15:45:23;11.00;34.60
2409;DHT22;8463;48.094;7.970;2023-04-25T15:47:54;11.10;33.20
2409;DHT22;8463;48.094;7.970;2023-04-25T15:50:20;11.10;32.90
2409;DHT22;8463;48.094;7.970;2023-04-25T15:52:49;11.10;32.40
2409;DHT22;8463;48.094;7.970;2023-04-25T15:55:15;11.10;29.10
2409;DHT22;8463;48.094;7.970;2023-04-25T15:57:42;11.00;30.00
2409;DHT22;8463;48.094;7.970;2023-04-25T16:00:17;11.10;30.30
2409;DHT22;8463;48.094;7.970;2023-04-25T16:02:47;11.20;29.70
2409;DHT22;8463;48.094;7.970;2023-04-25T16:05:13;11.10;30.50
2409;DHT22;8463;48.094;7.970;2023-04-25T16:07:40;11.10;30.80
2409;DHT22;8463;48.094;7.970;2023-04-25T16:10:09;11.10;32.00
2409;DHT22;8463;48.094;7.970;2023-04-25T16:12:35;11.10;32.70
2409;DHT22;8463;48.094;7.970;2023-04-25T16:15:02;11.10;32.40
2409;DHT22;8463;48.094;7.970;2023-04-25T16:17:28;11.10;32.90
2409;DHT22;8463;48.094;7.970;2023-04-25T16:19:55;11.20;33.40
2409;DHT22;8463;48.094;7.970;2023-04-25T16:22:21;11.20;31.90